Time;durP1;ratioP1;P1;durP2;ratioP2;P2;SDS_P1;SDS_P2;PMS_P1;PMS_P2;Temp;Humidity;BMP_temperature;BMP_pressure;BME280_temperature;BME280_humidity;BME280_pressure;Samples;Min_cycle;Max_cycle;Signal;HPM_P1;HPM_P2
2022/07/04 00:00:51;;;;;;;4.60;1.90;;;21.20;99.90;;;;;;4998114;28;20276;-82
2022/07/04 00:03:17;;;;;;;1.97;1.73;;;21.20;99.90;;;;;;4993862;28;21088;-83
2022/07/04 00:05:42;;;;;;;3.17;1.80;;;21.10;99.90;;;;;;4993328;28;20298;-80
2022/07/04 00:08:08;;;;;;;2.93;1.70;;;21.00;99.90;;;;;;4996936;28;20190;-82
2022/07/04 00:10:33;;;;;;;4.27;2.40;;;21.00;99.90;;;;;;5011964;28;20351;-82
2022/07/04 00:12:59;;;;;;;3.77;1.87;;;21.00;99.90;;;;;;4999804;28;20257;-82
2022/07/04 00:15:25;;;;;;;3.37;1.90;;;21.00;99.90;;;;;;4998663;28;20179;-85
2022/07/04 00:17:51;;;;;;;2.20;2.00;;;21.00;99.90;;;;;;5006184;28;20446;-86
2022/07/04 00:20:17;;;;;;;5.33;2.03;;;20.90;99.90;;;;;;5000567;28;20238;-83
2022/07/04 00:22:43;;;;;;;3.13;2.00;;;20.90;99.90;;;;;;5004142;28;20526;-84
2022/07/04 00:25:09;;;;;;;4.53;2.03;;;20.90;99.90;;;;;;5000256;28;20526;-84
2022/07/04 00:27:34;;;;;;;2.43;2.13;;;20.70;99.90;;;;;;4997807;28;20533;-82
2022/07/04 00:30:01;;;;;;;3.07;2.47;;;20.70;99.90;;;;;;5014713;28;20209;-82
2022/07/04 00:32:26;;;;;;;4.83;3.00;;;20.70;99.90;;;;;;4997763;28;20270;-84
2022/07/04 00:34:52;;;;;;;2.10;1.90;;;20.60;99.90;;;;;;4996845;28;20544;-86
2022/07/04 00:37:18;;;;;;;3.20;2.00;;;20.60;99.90;;;;;;4996722;28;20175;-83
2022/07/04 00:39:44;;;;;;;2.30;1.70;;;20.50;99.90;;;;;;5002317;28;20201;-84
2022/07/04 00:42:10;;;;;;;2.30;1.60;;;20.50;99.90;;;;;;5012958;28;20179;-85
2022/07/04 00:44:36;;;;;;;4.47;1.77;;;20.40;99.90;;;;;;5000775;28;20433;-85
2022/07/04 00:47:02;;;;;;;2.53;2.10;;;20.40;99.90;;;;;;5007768;28;20429;-83
2022/07/04 00:49:28;;;;;;;5.90;2.23;;;20.30;99.90;;;;;;5001728;28;20465;-85
2022/07/04 00:51:54;;;;;;;2.40;1.50;;;21.70;99.90;;;;;;5002998;28;20442;-85
2022/07/04 00:54:21;;;;;;;1.93;1.60;;;20.40;99.90;;;;;;5005092;28;20690;-82
2022/07/04 00:56:47;;;;;;;2.30;2.10;;;20.40;99.90;;;;;;5002151;28;20183;-86
2022/07/04 00:59:13;;;;;;;5.40;2.00;;;20.30;99.90;;;;;;4999572;28;20501;-85
2022/07/04 01:01:39;;;;;;;2.70;2.50;;;20.30;99.90;;;;;;5000016;28;20269;-86
2022/07/04 01:04:06;;;;;;;4.40;2.00;;;20.30;99.90;;;;;;4998062;28;20174;-84
2022/07/04 01:06:32;;;;;;;4.10;1.83;;;20.20;99.90;;;;;;5006788;28;21136;-85
2022/07/04 01:08:59;;;;;;;2.80;2.10;;;20.10;99.90;;;;;;5007543;28;20453;-85
2022/07/04 01:11:25;;;;;;;5.10;2.63;;;20.10;99.90;;;;;;5014884;28;20469;-84
2022/07/04 01:13:53;;;;;;;6.17;2.40;;;20.10;99.90;;;;;;4998260;28;20432;-86
2022/07/04 01:16:18;;;;;;;3.10;2.10;;;20.00;99.90;;;;;;4998498;28;20186;-83
2022/07/04 01:18:44;;;;;;;3.23;2.07;;;20.00;99.90;;;;;;5004536;28;20484;-86
2022/07/04 01:21:09;;;;;;;4.90;3.00;;;20.00;99.90;;;;;;5001028;28;20213;-87
2022/07/04 01:23:39;;;;;;;4.57;2.10;;;19.90;99.90;;;;;;5001070;28;20819;-84
2022/07/04 01:26:05;;;;;;;8.40;2.20;;;19.80;99.90;;;;;;4999110;28;20281;-85
2022/07/04 01:28:31;;;;;;;5.17;1.80;;;;;;;;;;4997542;28;20441;-87
2022/07/04 01:30:57;;;;;;;4.70;2.73;;;19.70;99.90;;;;;;5015516;28;20472;-87
2022/07/04 01:33:23;;;;;;;3.30;2.23;;;19.60;99.90;;;;;;5004379;28;22480;-86
2022/07/04 01:35:48;;;;;;;5.43;1.80;;;20.60;99.90;;;;;;5002171;28;20481;-84
2022/07/04 01:38:14;;;;;;;4.97;2.57;;;19.50;99.90;;;;;;5005617;28;20262;-85
2022/07/04 01:40:40;;;;;;;4.73;2.23;;;19.40;99.90;;;;;;5015186;28;20234;-84
2022/07/04 01:43:05;;;;;;;3.97;2.20;;;19.20;99.90;;;;;;5001247;28;20198;-84
2022/07/04 01:45:37;;;;;;;8.87;2.50;;;19.30;99.90;;;;;;4998273;28;20244;-82
2022/07/04 01:48:06;;;;;;;3.20;2.50;;;19.10;99.90;;;;;;4998029;28;20171;-90
2022/07/04 01:50:32;;;;;;;7.30;2.30;;;19.10;99.90;;;;;;5000999;28;21843;-88
2022/07/04 01:52:58;;;;;;;3.30;2.07;;;19.20;99.90;;;;;;4998782;28;20443;-88
2022/07/04 01:55:24;;;;;;;4.03;2.07;;;22.00;99.90;;;;;;5001740;28;20437;-87
2022/07/04 01:57:49;;;;;;;6.30;2.80;;;20.50;99.90;;;;;;4999182;28;20237;-87
2022/07/04 02:02:59;;;;;;;2.40;2.10;;;19.10;99.90;;;;;;4998717;28;20189;-85
2022/07/04 02:05:25;;;;;;;3.37;1.93;;;19.20;99.90;;;;;;5002262;28;20459;-87
2022/07/04 02:07:50;;;;;;;5.37;2.20;;;19.20;99.90;;;;;;4998089;28;20211;-86
2022/07/04 02:10:17;;;;;;;4.00;1.90;;;19.20;99.90;;;;;;5006415;28;20678;-84
2022/07/04 02:13:01;;;;;;;2.60;1.70;;;19.20;99.90;;;;;;5003515;28;20670;-84
2022/07/04 02:15:30;;;;;;;5.17;1.93;;;19.20;99.90;;;;;;5001092;28;20438;-82
2022/07/04 02:17:56;;;;;;;5.70;1.73;;;19.20;99.90;;;;;;5019876;28;20443;-87
2022/07/04 02:20:23;;;;;;;3.60;1.90;;;19.20;99.90;;;;;;5008746;28;20975;-87
2022/07/04 02:22:48;;;;;;;5.43;1.87;;;19.10;99.90;;;;;;4995569;28;20528;-88
2022/07/04 02:25:14;;;;;;;4.60;2.40;;;19.00;99.90;;;;;;5004495;28;20513;-88
2022/07/04 02:27:39;;;;;;;3.37;2.10;;;19.30;99.90;;;;;;5005736;28;20205;-83
2022/07/04 02:30:06;;;;;;;6.50;2.33;;;19.00;99.90;;;;;;4997921;28;20207;-83
2022/07/04 02:32:32;;;;;;;3.80;2.40;;;18.90;99.90;;;;;;5001628;28;20193;-85
2022/07/04 02:34:57;;;;;;;4.47;2.97;;;18.80;99.90;;;;;;5016079;28;20446;-88
2022/07/04 02:37:23;;;;;;;3.50;3.03;;;18.70;99.90;;;;;;5007188;28;20186;-87
2022/07/04 02:39:49;;;;;;;3.37;2.53;;;18.70;99.90;;;;;;4999480;28;20275;-87
2022/07/04 02:42:14;;;;;;;6.77;2.83;;;18.50;99.90;;;;;;4999047;28;20675;-87
2022/07/04 02:44:41;;;;;;;7.00;2.50;;;18.50;99.90;;;;;;4998422;28;20194;-88
2022/07/04 02:47:07;;;;;;;3.40;2.50;;;18.40;99.90;;;;;;5003643;28;20197;-87
2022/07/04 02:49:33;;;;;;;2.87;2.40;;;;;;;;;;4998224;28;20457;-88
2022/07/04 02:51:58;;;;;;;3.90;2.23;;;18.30;99.90;;;;;;5011962;28;20349;-88
2022/07/04 02:54:24;;;;;;;4.87;2.60;;;;;;;;;;5006992;28;20489;-89
2022/07/04 02:56:50;;;;;;;3.43;2.23;;;18.20;99.90;;;;;;5016490;28;20190;-88
2022/07/04 02:59:15;;;;;;;2.70;2.13;;;19.80;99.90;;;;;;5002355;28;20465;-89
2022/07/04 03:01:41;;;;;;;4.43;2.07;;;18.10;99.90;;;;;;5001129;28;20274;-89
2022/07/04 03:04:06;;;;;;;3.60;2.60;;;18.10;99.90;;;;;;4998897;28;20183;-88
2022/07/04 03:06:32;;;;;;;3.23;2.50;;;18.10;99.90;;;;;;5005775;28;20190;-89
2022/07/04 03:08:59;;;;;;;5.17;2.13;;;18.20;99.90;;;;;;5000295;28;20226;-88
2022/07/04 03:11:24;;;;;;;3.43;2.90;;;18.10;99.90;;;;;;5003128;28;21008;-88
2022/07/04 03:13:50;;;;;;;5.93;3.50;;;18.00;99.90;;;;;;5000478;28;20218;-87
2022/07/04 03:16:15;;;;;;;4.00;2.23;;;18.00;99.90;;;;;;5001158;28;20175;-88
2022/07/04 03:18:41;;;;;;;2.13;1.93;;;18.00;99.90;;;;;;5013536;28;20227;-89
2022/07/04 03:21:07;;;;;;;5.90;2.03;;;17.90;99.90;;;;;;5010799;28;20242;-88
2022/07/04 03:23:34;;;;;;;3.10;1.93;;;17.90;99.90;;;;;;5017326;28;21060;-89
2022/07/04 03:26:00;;;;;;;3.60;2.77;;;17.80;99.90;;;;;;5000435;28;20269;-87
2022/07/04 03:28:26;;;;;;;6.13;2.90;;;17.70;99.90;;;;;;5004152;28;20438;-89
2022/07/04 03:30:51;;;;;;;2.17;1.97;;;17.60;99.90;;;;;;5005402;28;20497;-88
2022/07/04 03:33:17;;;;;;;7.50;2.80;;;17.70;99.90;;;;;;4997083;28;20441;-88
2022/07/04 03:35:43;;;;;;;6.70;2.03;;;18.00;99.90;;;;;;4998631;28;20186;-89
2022/07/04 03:38:09;;;;;;;4.20;2.37;;;;;;;;;;5007755;28;20890;-89
2022/07/04 03:40:35;;;;;;;2.70;2.03;;;17.60;99.90;;;;;;5017159;28;20266;-84
2022/07/04 03:43:01;;;;;;;4.40;2.27;;;17.60;99.90;;;;;;5003135;28;20526;-84
2022/07/04 03:45:27;;;;;;;7.00;2.63;;;17.70;99.90;;;;;;5001187;28;20432;-83
2022/07/04 03:47:53;;;;;;;4.83;2.47;;;17.70;99.90;;;;;;5003392;28;20509;-85
2022/07/04 03:50:18;;;;;;;4.57;2.50;;;17.70;99.90;;;;;;5003339;28;20214;-83
2022/07/04 03:52:44;;;;;;;9.27;2.40;;;17.70;99.90;;;;;;5006619;28;20189;-83
2022/07/04 03:55:09;;;;;;;5.63;2.83;;;17.60;99.90;;;;;;5004835;28;20200;-84
2022/07/04 03:57:35;;;;;;;4.97;2.30;;;17.60;99.90;;;;;;5002794;28;20716;-84
2022/07/04 04:00:02;;;;;;;2.80;1.93;;;17.70;99.90;;;;;;5004236;28;20266;-83
2022/07/04 04:02:27;;;;;;;4.63;2.33;;;17.70;99.90;;;;;;5001174;28;20175;-83
2022/07/04 04:07:37;;;;;;;7.53;2.60;;;17.90;99.90;;;;;;5014289;28;20344;-86
2022/07/04 04:10:03;;;;;;;8.10;2.33;;;18.00;99.90;;;;;;5014994;28;20467;-85
2022/07/04 04:12:28;;;;;;;4.60;2.13;;;18.10;99.90;;;;;;5022385;28;20177;-85
2022/07/04 04:14:54;;;;;;;7.07;2.27;;;18.30;99.90;;;;;;5018744;28;20180;-86
2022/07/04 04:17:19;;;;;;;3.97;1.97;;;18.30;99.90;;;;;;5015661;28;20291;-85
2022/07/04 04:19:45;;;;;;;4.33;2.47;;;18.50;99.90;;;;;;5008141;28;20198;-87
2022/07/04 04:22:10;;;;;;;2.20;2.00;;;19.30;99.90;;;;;;5018123;28;20285;-83
2022/07/04 04:24:36;;;;;;;4.30;1.70;;;20.80;99.90;;;;;;5008470;28;20233;-85
2022/07/04 04:27:02;;;;;;;5.27;2.20;;;22.00;99.90;;;;;;5009109;28;20332;-87
2022/07/04 04:29:27;;;;;;;4.40;2.20;;;23.30;99.90;;;;;;5011022;28;20373;-92
2022/07/04 04:31:53;;;;;;;3.37;2.10;;;24.70;99.90;;;;;;5018029;28;20174;-90
2022/07/04 04:34:18;;;;;;;4.93;2.17;;;25.10;99.90;;;;;;5021797;28;21972;-91
2022/07/04 04:36:44;;;;;;;9.33;2.23;;;24.40;99.90;;;;;;5024234;28;20201;-89
2022/07/04 04:39:09;;;;;;;4.30;2.10;;;24.10;99.90;;;;;;5015101;28;20181;-91
2022/07/04 04:41:35;;;;;;;5.00;2.13;;;24.40;99.90;;;;;;5013210;28;20197;-87
2022/07/04 04:44:00;;;;;;;3.37;2.10;;;25.60;99.90;;;;;;5011434;28;20189;-88
2022/07/04 04:46:26;;;;;;;3.70;2.03;;;26.20;99.90;;;;;;5022417;28;20215;-89
2022/07/04 04:48:51;;;;;;;8.83;2.10;;;26.80;99.40;;;;;;5017599;28;20216;-88
2022/07/04 04:51:17;;;;;;;3.77;1.87;;;26.60;98.50;;;;;;5016684;28;20225;-90
2022/07/04 04:53:43;;;;;;;3.60;2.10;;;26.60;97.60;;;;;;5020153;28;20186;-88
2022/07/04 04:56:08;;;;;;;4.00;2.00;;;26.00;97.40;;;;;;5015348;28;20288;-88
2022/07/04 04:58:34;;;;;;;2.60;2.00;;;25.30;98.30;;;;;;5010718;28;20612;-89
2022/07/04 05:01:02;;;;;;;6.60;2.20;;;27.00;96.10;;;;;;5032219;22;20280;-88
2022/07/04 05:03:28;;;;;;;2.37;2.13;;;26.90;96.10;;;;;;5011696;28;20203;-92
2022/07/04 05:05:54;;;;;;;2.43;2.10;;;27.80;95.40;;;;;;5023878;28;20454;-88
2022/07/04 05:08:19;;;;;;;6.63;2.10;;;27.70;94.10;;;;;;5009954;28;20438;-88
2022/07/04 05:10:45;;;;;;;5.23;1.97;;;27.80;93.20;;;;;;5003905;28;20215;-88
2022/07/04 05:13:10;;;;;;;3.30;1.90;;;28.80;92.60;;;;;;5001831;28;20240;-86
2022/07/04 05:15:36;;;;;;;6.47;1.70;;;30.40;90.80;;;;;;5003331;28;20200;-88
2022/07/04 05:18:01;;;;;;;2.80;1.73;;;30.50;80.30;;;;;;5003772;28;20189;-87
2022/07/04 05:20:27;;;;;;;6.67;2.33;;;30.20;83.30;;;;;;4997825;28;20183;-87
2022/07/04 05:22:52;;;;;;;3.00;2.10;;;29.80;82.10;;;;;;4994366;28;20258;-87
2022/07/04 05:25:18;;;;;;;3.20;2.00;;;28.40;84.10;;;;;;4994827;28;20266;-88
2022/07/04 05:27:43;;;;;;;4.63;1.90;;;27.90;84.70;;;;;;5001208;28;20248;-88
2022/07/04 05:30:10;;;;;;;4.50;2.47;;;28.30;87.10;;;;;;4995042;28;20224;-87
2022/07/04 05:32:39;;;;;;;5.97;2.07;;;29.30;87.90;;;;;;4998374;28;20198;-87
2022/07/04 05:35:06;;;;;;;5.70;2.00;;;31.10;80.90;;;;;;5000108;28;20464;-89
2022/07/04 05:37:32;;;;;;;2.30;1.80;;;33.20;76.00;;;;;;5009143;28;20429;-87
2022/07/04 05:39:57;;;;;;;1.90;1.63;;;33.90;67.00;;;;;;4995501;28;20504;-89
2022/07/04 05:42:23;;;;;;;5.53;2.00;;;33.20;66.10;;;;;;4998138;28;20219;-88
2022/07/04 05:44:48;;;;;;;6.47;2.63;;;34.80;64.70;;;;;;4999737;28;20212;-88
2022/07/04 05:47:14;;;;;;;4.83;2.90;;;36.00;59.40;;;;;;5001248;28;21071;-88
2022/07/04 05:49:40;;;;;;;4.20;3.90;;;36.80;57.20;;;;;;5000269;28;20196;-88
2022/07/04 05:52:05;;;;;;;5.80;3.77;;;36.40;52.40;;;;;;4994540;28;20184;-88
2022/07/04 05:54:31;;;;;;;6.23;4.10;;;35.50;53.40;;;;;;5006040;28;20206;-88
2022/07/04 05:56:56;;;;;;;4.70;4.30;;;32.70;54.80;;;;;;5004874;28;20189;-88
2022/07/04 05:59:22;;;;;;;4.23;3.70;;;;;;;;;;5005651;28;20185;-89
2022/07/04 06:01:48;;;;;;;6.10;4.10;;;34.20;56.30;;;;;;4999025;28;20204;-88
2022/07/04 06:04:14;;;;;;;5.97;4.50;;;34.10;55.60;;;;;;4999607;28;20479;-87
2022/07/04 06:06:39;;;;;;;5.00;4.23;;;33.30;57.30;;;;;;5010867;28;20217;-87
2022/07/04 06:09:05;;;;;;;4.43;4.03;;;33.20;57.40;;;;;;4997128;28;20333;-88
2022/07/04 06:11:30;;;;;;;3.83;3.50;;;32.10;57.80;;;;;;4995637;28;20217;-88
2022/07/04 06:13:56;;;;;;;3.50;3.30;;;31.70;61.10;;;;;;4996825;28;20210;-89
2022/07/04 06:16:22;;;;;;;4.90;2.40;;;30.90;60.80;;;;;;4998879;28;20736;-88
2022/07/04 06:18:47;;;;;;;4.53;2.10;;;30.00;64.50;;;;;;5001095;28;20943;-89
2022/07/04 06:21:13;;;;;;;4.80;2.20;;;28.50;68.00;;;;;;4994842;28;20199;-87
2022/07/04 06:23:39;;;;;;;5.27;1.97;;;28.30;69.80;;;;;;4995850;28;20198;-89
2022/07/04 06:26:04;;;;;;;3.93;2.17;;;28.40;70.80;;;;;;4997589;28;20191;-89
2022/07/04 06:28:30;;;;;;;4.00;2.30;;;29.40;71.80;;;;;;4999273;28;20194;-87
2022/07/04 06:30:56;;;;;;;2.57;1.70;;;29.20;70.90;;;;;;5013200;28;20624;-88
2022/07/04 06:33:22;;;;;;;3.07;2.00;;;29.20;73.30;;;;;;4994178;28;21595;-88
2022/07/04 06:35:56;;;;;;;4.60;2.03;;;30.20;68.60;;;;;;5005261;28;20496;-88
2022/07/04 06:38:27;;;;;;;6.97;2.13;;;30.10;70.10;;;;;;4994441;28;20287;-88
2022/07/04 06:40:59;;;;;;;4.07;2.37;;;30.60;67.00;;;;;;5014090;28;20553;-87
2022/07/04 06:43:25;;;;;;;2.30;2.10;;;30.40;68.70;;;;;;5000813;28;20989;-88
2022/07/04 06:45:52;;;;;;;5.10;2.07;;;;;;;;;;4997644;28;20493;-87
2022/07/04 06:48:18;;;;;;;3.10;2.00;;;30.00;66.40;;;;;;5011579;28;20437;-88
2022/07/04 06:50:43;;;;;;;4.80;2.37;;;30.90;70.30;;;;;;4996258;28;20469;-89
2022/07/04 06:53:10;;;;;;;5.67;2.07;;;31.70;65.80;;;;;;4997053;28;20448;-89
2022/07/04 06:55:40;;;;;;;6.20;2.10;;;31.30;65.50;;;;;;5001587;28;20694;-87
2022/07/04 06:58:08;;;;;;;3.23;1.97;;;30.30;66.00;;;;;;5000923;28;20437;-86
2022/07/04 07:00:34;;;;;;;6.87;2.23;;;30.10;66.90;;;;;;5003472;28;20436;-87
2022/07/04 07:03:01;;;;;;;4.60;2.20;;;28.90;69.00;;;;;;5005862;28;20457;-89
2022/07/04 07:05:27;;;;;;;7.57;2.70;;;28.50;72.80;;;;;;5000211;28;20852;-87
2022/07/04 07:07:53;;;;;;;4.23;2.57;;;28.80;73.30;;;;;;5000797;28;20440;-87
2022/07/04 07:10:19;;;;;;;3.60;2.07;;;29.60;73.00;;;;;;5000496;28;20525;-88
2022/07/04 07:12:45;;;;;;;2.87;2.20;;;29.60;73.60;;;;;;5008802;28;20467;-88
2022/07/04 07:15:11;;;;;;;7.30;3.13;;;29.50;71.20;;;;;;5002238;28;20457;-88
2022/07/04 07:17:37;;;;;;;4.13;2.10;;;29.50;73.20;;;;;;5002634;28;20196;-87
2022/07/04 07:20:03;;;;;;;3.40;2.20;;;30.00;70.50;;;;;;5006478;28;20547;-89
2022/07/04 07:22:29;;;;;;;3.33;1.63;;;30.10;70.70;;;;;;5009353;28;21286;-87
2022/07/04 07:24:54;;;;;;;3.63;2.40;;;31.20;70.00;;;;;;5005677;28;20484;-88
2022/07/04 07:27:20;;;;;;;3.00;2.17;;;30.90;66.20;;;;;;5001005;28;20204;-88
2022/07/04 07:29:46;;;;;;;3.30;2.50;;;31.80;67.30;;;;;;5005739;28;20692;-88
2022/07/04 07:32:12;;;;;;;2.40;2.20;;;;;;;;;;5003308;28;20186;-88
2022/07/04 07:34:38;;;;;;;4.80;2.53;;;;;;;;;;5005507;28;20207;-89
2022/07/04 07:37:03;;;;;;;4.47;3.10;;;32.60;63.30;;;;;;5002073;28;20441;-87
2022/07/04 07:39:29;;;;;;;5.27;3.00;;;31.60;63.70;;;;;;5001419;28;20797;-87
2022/07/04 07:41:55;;;;;;;3.33;3.03;;;32.20;65.20;;;;;;5012756;28;20491;-88
2022/07/04 07:44:22;;;;;;;4.50;4.03;;;32.90;65.10;;;;;;5001531;28;20212;-88
2022/07/04 07:46:47;;;;;;;4.67;4.37;;;34.80;60.90;;;;;;5002616;28;20192;-88
2022/07/04 07:49:13;;;;;;;5.03;4.73;;;37.20;56.00;;;;;;4999463;28;20464;-89
2022/07/04 07:51:38;;;;;;;7.83;6.33;;;37.30;54.10;;;;;;5001646;28;20530;-88
2022/07/04 07:54:04;;;;;;;7.50;7.10;;;;;;;;;;4996902;28;20240;-88
2022/07/04 07:56:30;;;;;;;7.77;7.37;;;37.30;52.80;;;;;;5007858;28;20181;-88
2022/07/04 07:58:56;;;;;;;8.50;8.10;;;37.20;53.90;;;;;;4999440;28;21325;-89
2022/07/04 08:01:22;;;;;;;9.23;8.63;;;;;;;;;;4999008;28;20211;-89
2022/07/04 08:06:32;;;;;;;13.20;8.03;;;36.70;51.30;;;;;;5000883;28;20444;-89
2022/07/04 08:08:58;;;;;;;8.67;8.07;;;37.20;49.90;;;;;;5006884;28;20443;-88
2022/07/04 08:11:24;;;;;;;8.73;7.93;;;37.30;49.90;;;;;;5006527;28;20477;-88
2022/07/04 08:13:49;;;;;;;8.27;7.70;;;34.60;51.20;;;;;;5009220;28;20257;-88
2022/07/04 08:16:15;;;;;;;7.70;7.30;;;34.70;52.10;;;;;;4998045;28;20682;-89
2022/07/04 08:18:40;;;;;;;8.07;7.57;;;35.50;53.60;;;;;;5006744;28;20194;-88
2022/07/04 08:21:06;;;;;;;7.10;6.53;;;;;;;;;;4996620;28;20196;-87
2022/07/04 08:23:33;;;;;;;6.57;6.07;;;32.20;56.30;;;;;;5000822;28;20229;-87
2022/07/04 08:25:59;;;;;;;6.43;5.87;;;32.10;56.60;;;;;;5014150;28;21209;-89
2022/07/04 08:28:26;;;;;;;5.67;5.40;;;33.20;56.20;;;;;;5006037;28;20459;-88
2022/07/04 08:30:53;;;;;;;7.00;6.50;;;;;;;;;;4999430;28;20539;-88
2022/07/04 08:33:18;;;;;;;6.40;5.90;;;33.50;56.20;;;;;;4997631;28;20430;-88
2022/07/04 08:35:44;;;;;;;7.23;6.63;;;34.80;54.40;;;;;;5004713;28;20462;-88
2022/07/04 08:38:11;;;;;;;7.27;6.70;;;36.50;52.10;;;;;;4998102;28;20181;-90
2022/07/04 08:40:36;;;;;;;7.90;7.50;;;36.50;51.70;;;;;;5015909;28;20225;-90
2022/07/04 08:43:04;;;;;;;8.30;7.80;;;36.30;51.00;;;;;;5008383;28;21023;-88
2022/07/04 08:45:33;;;;;;;8.13;7.73;;;35.80;50.80;;;;;;5006676;28;21203;-89
2022/07/04 08:48:06;;;;;;;7.60;7.20;;;34.80;52.40;;;;;;4999550;28;20432;-90
2022/07/04 08:50:53;;;;;;;7.70;7.30;;;35.10;52.10;;;;;;4997962;28;20470;-87
2022/07/04 08:53:20;;;;;;;7.97;7.47;;;36.90;51.50;;;;;;5011878;28;20435;-88
2022/07/04 08:58:33;;;;;;;8.57;7.97;;;35.30;50.90;;;;;;4996220;28;20432;-88
2022/07/04 09:01:04;;;;;;;7.50;7.10;;;34.10;52.60;;;;;;4996914;28;20444;-87
2022/07/04 09:03:30;;;;;;;6.90;5.80;;;31.30;55.40;;;;;;4998846;28;20972;-89
2022/07/04 09:05:57;;;;;;;5.20;4.37;;;29.40;59.60;;;;;;4999467;28;20465;-88
2022/07/04 09:08:23;;;;;;;4.30;4.00;;;29.60;61.80;;;;;;4998788;28;20442;-87
2022/07/04 09:10:49;;;;;;;5.50;5.07;;;31.40;57.80;;;;;;4997991;28;21222;-89
2022/07/04 09:13:17;;;;;;;7.43;4.40;;;31.40;58.30;;;;;;4999449;28;20680;-88
2022/07/04 09:15:44;;;;;;;15.63;5.83;;;32.50;57.20;;;;;;5006507;28;20514;-88
2022/07/04 09:18:39;;;;;;;5.90;5.30;;;31.60;54.30;;;;;;4996266;28;20454;-87
2022/07/04 09:21:09;;;;;;;5.53;5.03;;;30.90;56.50;;;;;;4983791;28;20476;-88
2022/07/04 09:23:43;;;;;;;6.57;5.03;;;32.30;56.00;;;;;;4999984;28;20580;-87
2022/07/04 09:26:17;;;;;;;5.97;5.47;;;32.20;56.00;;;;;;4992629;28;20529;-88
2022/07/04 09:28:57;;;;;;;6.60;6.20;;;33.90;54.90;;;;;;5001788;28;20452;-87
2022/07/04 09:31:25;;;;;;;9.87;6.93;;;35.10;53.30;;;;;;5019458;28;20493;-89
2022/07/04 09:34:00;;;;;;;9.27;8.47;;;38.90;46.40;;;;;;4998863;28;21008;-88
2022/07/04 09:36:28;;;;;;;10.60;10.00;;;39.00;46.90;;;;;;5002109;28;20427;-88
2022/07/04 09:39:06;;;;;;;10.43;9.67;;;38.20;49.00;;;;;;5001938;28;20518;-88
2022/07/04 09:41:48;;;;;;;10.30;9.70;;;36.70;48.90;;;;;;5000554;28;21011;-87
2022/07/04 09:44:14;;;;;;;8.73;8.20;;;36.40;48.60;;;;;;4999540;28;21007;-87
2022/07/04 09:46:40;;;;;;;9.57;9.00;;;36.30;50.80;;;;;;5000474;28;20433;-88
2022/07/04 09:49:05;;;;;;;10.10;9.13;;;37.00;49.50;;;;;;5000112;28;20195;-88
2022/07/04 09:51:46;;;;;;;9.97;9.07;;;38.00;49.00;;;;;;5004339;28;21109;-89
2022/07/04 09:54:29;;;;;;;9.80;9.10;;;37.80;47.90;;;;;;4998657;28;20985;-89
2022/07/04 09:57:01;;;;;;;10.47;9.60;;;37.80;48.30;;;;;;4996400;28;20445;-88
2022/07/04 09:59:29;;;;;;;10.17;9.47;;;37.90;48.40;;;;;;5000421;28;20523;-88
2022/07/04 10:02:13;;;;;;;12.73;10.50;;;39.00;45.00;;;;;;4999305;28;21244;-89
2022/07/04 10:04:42;;;;;;;11.63;10.90;;;39.50;46.10;;;;;;5005699;28;20490;-89
2022/07/04 10:07:08;;;;;;;11.73;11.10;;;;;;;;;;5027990;22;20497;-87
2022/07/04 10:09:33;;;;;;;10.47;9.97;;;38.40;42.80;;;;;;5012489;28;20819;-86
2022/07/04 10:11:59;;;;;;;11.23;10.53;;;34.80;47.10;;;;;;5008968;28;20876;-87
2022/07/04 10:14:25;;;;;;;10.50;9.83;;;34.30;49.60;;;;;;5016019;28;20196;-87
2022/07/04 10:16:50;;;;;;;9.20;8.60;;;33.90;51.10;;;;;;5015831;28;20270;-86
2022/07/04 10:19:16;;;;;;;9.27;8.87;;;32.80;52.20;;;;;;5024904;28;20983;-88
2022/07/04 10:21:42;;;;;;;9.13;8.10;;;;;;;;;;5023079;28;20188;-86
2022/07/04 10:24:08;;;;;;;8.87;8.27;;;34.60;49.40;;;;;;5020141;28;20439;-86
2022/07/04 10:26:34;;;;;;;9.50;8.80;;;35.80;49.40;;;;;;5025511;28;20575;-87
2022/07/04 10:28:59;;;;;;;9.80;9.10;;;35.30;51.20;;;;;;5018112;28;20339;-86
2022/07/04 10:31:27;;;;;;;9.90;9.30;;;35.10;49.50;;;;;;5013806;28;20281;-86
2022/07/04 10:33:54;;;;;;;12.73;9.13;;;35.50;50.10;;;;;;5013695;28;20183;-87
2022/07/04 10:36:22;;;;;;;8.83;8.43;;;35.40;47.90;;;;;;5017439;28;20453;-87
2022/07/04 10:38:51;;;;;;;9.90;9.20;;;34.40;50.00;;;;;;5024454;28;20455;-87
2022/07/04 10:41:20;;;;;;;8.70;8.20;;;34.40;50.30;;;;;;5019984;28;20441;-87
2022/07/04 10:43:52;;;;;;;7.67;7.10;;;32.70;52.20;;;;;;5015300;28;20973;-86
2022/07/04 10:46:43;;;;;;;5.57;5.17;;;31.60;52.20;;;;;;5021957;28;20477;-86
2022/07/04 10:49:15;;;;;;;4.70;4.23;;;29.90;56.50;;;;;;5022256;28;20437;-88
2022/07/04 10:51:46;;;;;;;3.93;3.50;;;28.00;59.80;;;;;;5011285;28;20998;-87
2022/07/04 10:54:18;;;;;;;3.67;3.37;;;27.30;65.30;;;;;;5016672;28;20488;-87
2022/07/04 10:56:56;;;;;;;5.83;2.90;;;27.50;66.50;;;;;;5022444;28;20444;-86
2022/07/04 10:59:27;;;;;;;3.73;2.60;;;28.40;67.60;;;;;;5019007;28;20488;-85
2022/07/04 11:02:16;;;;;;;5.90;3.43;;;28.60;65.00;;;;;;5016036;28;20450;-87
2022/07/04 11:04:52;;;;;;;3.23;2.93;;;28.40;68.70;;;;;;5008804;28;20469;-86
2022/07/04 11:07:30;;;;;;;4.30;3.13;;;28.40;67.10;;;;;;5013743;28;20552;-87
2022/07/04 11:10:11;;;;;;;3.43;3.10;;;28.50;65.30;;;;;;5022732;28;20450;-86
2022/07/04 11:12:55;;;;;;;3.40;2.70;;;27.80;63.50;;;;;;5021333;28;20508;-88
2022/07/04 11:15:27;;;;;;;3.13;2.93;;;28.60;67.50;;;;;;5017590;28;20799;-86
2022/07/04 11:18:09;;;;;;;3.13;2.80;;;28.70;68.60;;;;;;5012640;28;20457;-88
2022/07/04 11:20:36;;;;;;;7.63;3.30;;;28.70;66.30;;;;;;5024141;28;20434;-86
2022/07/04 11:23:13;;;;;;;3.80;3.37;;;28.60;66.50;;;;;;5017077;28;20434;-87
2022/07/04 11:25:40;;;;;;;3.87;2.80;;;28.80;67.10;;;;;;5023790;28;20973;-88
2022/07/04 11:28:36;;;;;;;4.50;3.03;;;29.30;63.10;;;;;;5019918;28;20551;-87
2022/07/04 11:31:02;;;;;;;3.00;2.80;;;28.30;66.20;;;;;;5011370;28;21044;-88
2022/07/04 11:33:33;;;;;;;2.97;2.67;;;27.80;68.60;;;;;;5023444;28;20433;-88
2022/07/04 11:36:11;;;;;;;6.10;3.10;;;28.40;65.70;;;;;;5017153;28;20202;-87
2022/07/04 11:38:57;;;;;;;3.37;2.33;;;28.40;67.70;;;;;;5022057;28;20973;-87
2022/07/04 11:47:24;;;;;;;3.93;2.50;;;28.30;68.70;;;;;;5018714;28;20503;-87
2022/07/04 11:49:50;;;;;;;11.10;2.50;;;28.50;75.70;;;;;;5004115;28;20446;-87
2022/07/04 11:52:18;;;;;;;6.43;3.20;;;28.80;66.70;;;;;;5015235;28;20433;-86
2022/07/04 11:54:45;;;;;;;3.50;3.20;;;29.00;64.10;;;;;;5014588;28;20239;-88
2022/07/04 11:57:14;;;;;;;4.00;2.97;;;29.20;65.00;;;;;;5019210;28;20467;-88
2022/07/04 11:59:39;;;;;;;3.20;2.90;;;28.10;67.80;;;;;;5017392;28;20991;-88
2022/07/04 12:02:13;;;;;;;4.07;2.60;;;27.60;72.30;;;;;;5016237;28;20481;-89
2022/07/04 12:04:41;;;;;;;2.90;1.83;;;27.60;77.80;;;;;;5018356;28;20181;-88
2022/07/04 12:07:19;;;;;;;4.33;2.70;;;27.00;74.40;;;;;;5021472;28;20964;-87
2022/07/04 12:09:46;;;;;;;3.97;2.60;;;26.40;75.60;;;;;;5016602;28;20430;-87
2022/07/04 12:12:13;;;;;;;3.10;2.63;;;26.20;76.40;;;;;;5017759;28;20806;-88
2022/07/04 12:14:39;;;;;;;4.30;2.27;;;26.50;74.70;;;;;;5019148;28;20435;-88
2022/07/04 12:17:09;;;;;;;5.07;3.10;;;27.10;73.70;;;;;;5021415;28;20444;-88
2022/07/04 12:19:34;;;;;;;2.83;2.10;;;27.50;75.10;;;;;;5014468;28;20188;-88
2022/07/04 12:22:00;;;;;;;6.60;2.67;;;27.40;73.10;;;;;;5018315;28;21158;-88
2022/07/04 12:24:38;;;;;;;6.60;2.87;;;27.50;72.80;;;;;;5034288;28;20211;-90
2022/07/04 12:27:04;;;;;;;5.13;2.40;;;27.20;75.60;;;;;;5032934;28;20718;-87
2022/07/04 12:29:29;;;;;;;2.97;2.20;;;26.40;74.20;;;;;;5031958;28;20436;-88
2022/07/04 12:31:55;;;;;;;4.33;2.70;;;26.50;76.00;;;;;;5021072;28;20319;-88
2022/07/04 12:34:21;;;;;;;2.60;2.33;;;26.20;72.50;;;;;;5023292;28;20184;-88
2022/07/04 12:36:50;;;;;;;3.57;2.17;;;26.60;75.30;;;;;;5027557;28;20239;-89
2022/07/04 12:39:37;;;;;;;5.07;2.13;;;26.70;74.60;;;;;;5020352;28;20215;-88
2022/07/04 12:42:09;;;;;;;4.80;2.30;;;26.90;76.20;;;;;;5027514;28;20987;-88
2022/07/04 12:44:35;;;;;;;3.27;2.43;;;27.10;74.40;;;;;;5022413;28;20440;-88
2022/07/04 12:47:02;;;;;;;6.40;2.90;;;27.30;73.70;;;;;;5022669;28;20824;-87
2022/07/04 12:49:28;;;;;;;3.47;2.27;;;27.10;75.10;;;;;;5027424;28;20522;-87
2022/07/04 12:52:04;;;;;;;4.50;2.77;;;27.10;76.90;;;;;;5024896;28;21040;-88
2022/07/04 12:54:29;;;;;;;8.63;2.60;;;26.80;77.40;;;;;;5019993;28;20450;-88
2022/07/04 12:57:07;;;;;;;2.40;2.20;;;26.70;77.20;;;;;;5019474;28;20463;-87
2022/07/04 12:59:33;;;;;;;2.37;2.17;;;26.80;76.00;;;;;;5021355;28;20325;-87
2022/07/04 13:01:59;;;;;;;2.67;2.47;;;26.90;79.50;;;;;;5022314;28;20491;-87
2022/07/04 13:04:24;;;;;;;3.53;2.50;;;26.90;80.20;;;;;;5021755;28;21081;-87
2022/07/04 13:06:50;;;;;;;5.90;2.77;;;27.00;77.10;;;;;;5022103;28;20569;-87
2022/07/04 13:09:16;;;;;;;5.10;3.30;;;27.00;77.70;;;;;;5028188;28;20185;-87